Time;durP1;ratioP1;P1;durP2;ratioP2;P2;SDS_P1;SDS_P2;PMS_P1;PMS_P2;Temp;Humidity;BMP_temperature;BMP_pressure;BME280_temperature;BME280_humidity;BME280_pressure;Samples;Min_cycle;Max_cycle;Signal;HPM_P1;HPM_P2
2024/01/05 00:01:48;;;;;;;128.77;56.63;;;18.00;68.90;;;;;;4865666;28;91175;-37
2024/01/05 00:04:13;;;;;;;129.40;56.53;;;18.00;68.90;;;;;;4866041;28;90620;-37
2024/01/05 00:06:39;;;;;;;128.20;56.35;;;18.00;68.90;;;;;;4863959;28;90240;-37
2024/01/05 00:09:06;;;;;;;127.90;56.25;;;18.00;68.90;;;;;;4865513;28;90079;-37
2024/01/05 00:11:32;;;;;;;128.63;56.35;;;18.00;69.00;;;;;;4862970;28;90095;-37
2024/01/05 00:13:57;;;;;;;127.35;56.45;;;18.00;68.90;;;;;;4866021;28;90119;-37
2024/01/05 00:16:23;;;;;;;128.82;56.65;;;18.00;68.90;;;;;;4865471;28;89866;-37
2024/01/05 00:18:49;;;;;;;129.73;56.28;;;18.00;68.90;;;;;;4861667;28;90441;-37
2024/01/05 00:21:19;;;;;;;129.88;56.55;;;17.90;68.90;;;;;;4862462;28;90044;-37
2024/01/05 00:23:45;;;;;;;132.40;56.47;;;17.90;68.90;;;;;;4863365;28;89443;-36
2024/01/05 00:26:10;;;;;;;129.82;56.35;;;17.90;68.90;;;;;;4859627;28;91211;-37
2024/01/05 00:28:36;;;;;;;130.13;56.88;;;17.90;69.00;;;;;;4862324;28;90133;-37
2024/01/05 00:31:02;;;;;;;129.45;56.33;;;17.90;69.00;;;;;;4859250;28;89719;-37
2024/01/05 00:33:27;;;;;;;128.70;56.22;;;17.90;69.00;;;;;;4858231;28;89482;-37
2024/01/05 00:35:53;;;;;;;128.68;56.15;;;17.90;69.00;;;;;;4861674;28;89898;-37
2024/01/05 00:38:18;;;;;;;133.65;56.30;;;17.80;68.90;;;;;;4862232;28;91266;-37
2024/01/05 00:40:44;;;;;;;128.50;56.47;;;17.80;68.90;;;;;;4855732;28;90669;-37
2024/01/05 00:43:09;;;;;;;129.43;56.65;;;17.80;69.00;;;;;;4857740;28;89750;-36
2024/01/05 00:45:35;;;;;;;130.32;56.90;;;17.80;69.00;;;;;;4861358;28;90181;-37
2024/01/05 00:48:01;;;;;;;127.47;56.20;;;17.80;69.00;;;;;;4862192;28;89851;-37
2024/01/05 00:50:26;;;;;;;128.20;56.33;;;17.70;69.00;;;;;;4861611;28;91733;-37
2024/01/05 00:52:52;;;;;;;128.43;56.28;;;17.70;68.90;;;;;;4865439;28;89534;-38
2024/01/05 00:55:17;;;;;;;128.32;56.03;;;17.70;68.90;;;;;;4863926;28;89638;-37
2024/01/05 00:57:43;;;;;;;125.80;55.53;;;17.70;69.00;;;;;;4866884;28;90630;-37
2024/01/05 01:00:09;;;;;;;128.50;56.30;;;17.70;68.90;;;;;;4866559;28;90855;-37
2024/01/05 01:02:37;;;;;;;127.40;56.10;;;17.70;68.90;;;;;;4861202;28;89489;-37
2024/01/05 01:05:03;;;;;;;127.78;56.20;;;17.70;68.90;;;;;;4860043;28;95567;-37
2024/01/05 01:07:29;;;;;;;129.30;55.97;;;17.70;68.80;;;;;;4862436;28;89893;-37
2024/01/05 01:09:55;;;;;;;130.55;56.20;;;17.60;68.80;;;;;;4864104;28;89439;-36
2024/01/05 01:12:21;;;;;;;128.85;56.45;;;17.60;68.90;;;;;;4862631;28;90759;-37
2024/01/05 01:14:46;;;;;;;127.63;56.00;;;17.60;68.90;;;;;;4863251;28;91168;-37
2024/01/05 01:17:12;;;;;;;128.30;55.80;;;17.60;68.80;;;;;;4866122;28;89632;-37
2024/01/05 01:19:38;;;;;;;129.35;56.60;;;17.60;68.80;;;;;;4864101;28;89501;-37
2024/01/05 01:22:03;;;;;;;127.13;55.78;;;17.60;68.80;;;;;;4861089;28;89631;-36
2024/01/05 01:24:29;;;;;;;126.72;55.88;;;17.60;68.70;;;;;;4862946;28;91538;-37
2024/01/05 01:26:55;;;;;;;127.55;55.92;;;17.60;68.70;;;;;;4862707;28;90022;-37
2024/01/05 01:29:20;;;;;;;128.27;56.22;;;17.60;68.70;;;;;;4863825;28;89567;-38
2024/01/05 01:31:46;;;;;;;127.70;55.70;;;17.60;68.70;;;;;;4863654;28;89220;-37
2024/01/05 01:34:12;;;;;;;127.40;56.00;;;17.50;68.80;;;;;;4864106;28;89992;-37
2024/01/05 01:36:37;;;;;;;126.93;55.85;;;17.50;68.70;;;;;;4865232;28;91502;-37
2024/01/05 01:39:04;;;;;;;126.90;56.22;;;17.50;68.70;;;;;;4862842;28;91233;-36
2024/01/05 01:41:30;;;;;;;127.65;55.95;;;17.50;68.70;;;;;;4866199;28;89910;-37
2024/01/05 01:43:56;;;;;;;128.35;56.05;;;17.40;68.60;;;;;;4868373;28;90592;-36
2024/01/05 01:46:23;;;;;;;126.10;55.63;;;17.50;68.70;;;;;;4864611;28;90470;-36
2024/01/05 01:48:50;;;;;;;126.93;55.60;;;17.50;68.60;;;;;;4868819;28;89619;-36
2024/01/05 01:51:15;;;;;;;127.15;55.45;;;17.40;68.50;;;;;;4859832;28;91367;-36
2024/01/05 01:53:42;;;;;;;127.90;56.25;;;17.40;68.40;;;;;;4863287;28;89423;-36
2024/01/05 01:56:10;;;;;;;127.43;56.00;;;17.40;68.40;;;;;;4859839;28;89293;-36
2024/01/05 01:58:42;;;;;;;126.53;55.88;;;17.40;68.40;;;;;;4864015;28;89581;-36
2024/01/05 02:01:09;;;;;;;128.77;55.80;;;17.40;68.40;;;;;;4858599;28;89954;-36
2024/01/05 02:03:34;;;;;;;125.78;55.75;;;17.40;68.40;;;;;;4862489;28;90497;-36
2024/01/05 02:06:00;;;;;;;126.32;55.65;;;17.40;68.40;;;;;;4856609;28;89907;-36
2024/01/05 02:08:27;;;;;;;127.40;56.00;;;17.30;68.30;;;;;;4863025;28;89936;-38
2024/01/05 02:10:52;;;;;;;126.05;56.00;;;17.40;68.30;;;;;;4864142;28;89478;-36
2024/01/05 02:13:18;;;;;;;125.53;55.78;;;17.30;68.30;;;;;;4864367;28;89831;-36
2024/01/05 02:15:44;;;;;;;126.07;55.75;;;17.30;68.20;;;;;;4863046;28;90801;-36
2024/01/05 02:18:14;;;;;;;127.07;56.00;;;17.30;68.10;;;;;;4864141;28;91765;-36
2024/01/05 02:20:40;;;;;;;125.13;55.17;;;17.30;68.20;;;;;;4858906;28;89814;-37
2024/01/05 02:23:15;;;;;;;127.70;55.88;;;17.20;67.90;;;;;;4861862;28;90114;-37
2024/01/05 02:25:41;;;;;;;125.20;55.15;;;17.20;68.10;;;;;;4862955;28;89922;-36
2024/01/05 02:28:06;;;;;;;127.07;55.30;;;17.20;67.90;;;;;;4864921;28;91723;-36
2024/01/05 02:30:32;;;;;;;124.82;55.50;;;17.20;68.00;;;;;;4859708;28;90713;-36
2024/01/05 02:32:57;;;;;;;124.85;55.25;;;17.20;68.00;;;;;;4859480;28;90093;-36
2024/01/05 02:35:23;;;;;;;125.32;55.53;;;17.20;68.00;;;;;;4862032;28;90229;-36
2024/01/05 02:37:49;;;;;;;126.35;55.55;;;17.20;67.80;;;;;;4857883;28;90263;-36
2024/01/05 02:40:14;;;;;;;125.97;55.20;;;17.20;67.80;;;;;;4863858;28;90175;-36
2024/01/05 02:42:40;;;;;;;126.40;55.15;;;17.20;67.80;;;;;;4861314;28;90080;-36
2024/01/05 02:45:06;;;;;;;126.90;55.50;;;17.20;67.70;;;;;;4864482;28;90958;-36
2024/01/05 02:47:32;;;;;;;124.22;54.97;;;17.10;67.70;;;;;;4865777;28;89577;-36
2024/01/05 02:49:57;;;;;;;125.32;55.63;;;17.10;67.70;;;;;;4857966;28;89976;-36
2024/01/05 02:52:23;;;;;;;126.97;55.47;;;17.10;67.70;;;;;;4862410;28;91408;-36
2024/01/05 02:54:49;;;;;;;124.50;55.35;;;17.10;67.60;;;;;;4866696;28;92736;-37
2024/01/05 02:57:15;;;;;;;124.95;55.47;;;17.00;67.50;;;;;;4862247;28;89849;-37
2024/01/05 02:59:41;;;;;;;124.47;55.17;;;17.00;67.60;;;;;;4861476;28;89479;-37
2024/01/05 03:02:06;;;;;;;123.57;54.97;;;17.00;67.60;;;;;;4862641;28;89346;-36
2024/01/05 03:04:32;;;;;;;124.50;55.42;;;17.00;67.60;;;;;;4861115;28;92607;-36
2024/01/05 03:06:57;;;;;;;124.20;55.13;;;17.00;67.40;;;;;;4865731;28;89540;-37
2024/01/05 03:09:23;;;;;;;124.05;54.75;;;17.00;67.50;;;;;;4866791;28;89858;-37
2024/01/05 03:11:49;;;;;;;123.63;55.08;;;17.00;67.50;;;;;;4860789;28;90265;-37
2024/01/05 03:14:15;;;;;;;123.72;55.00;;;17.00;67.50;;;;;;4863237;28;90296;-37
2024/01/05 03:16:41;;;;;;;123.63;55.05;;;17.00;67.50;;;;;;4864100;28;91742;-37
2024/01/05 03:19:06;;;;;;;124.97;55.20;;;16.90;67.50;;;;;;4863963;28;89611;-36
2024/01/05 03:21:32;;;;;;;123.60;55.22;;;17.00;67.50;;;;;;4862256;28;90304;-37
2024/01/05 03:23:58;;;;;;;124.53;55.25;;;16.90;67.40;;;;;;4863745;28;89769;-37
2024/01/05 03:26:23;;;;;;;124.07;55.30;;;16.90;67.40;;;;;;4861282;28;89569;-37
2024/01/05 03:28:49;;;;;;;123.93;55.13;;;16.90;67.40;;;;;;4874740;28;89838;-37
2024/01/05 03:31:15;;;;;;;123.78;54.95;;;16.90;67.40;;;;;;4865267;28;91728;-37
2024/01/05 03:33:41;;;;;;;125.20;54.78;;;16.90;67.40;;;;;;4861164;28;89442;-37
2024/01/05 03:36:07;;;;;;;123.72;55.03;;;16.80;67.30;;;;;;4861205;28;89822;-37
2024/01/05 03:38:32;;;;;;;123.80;54.97;;;16.80;67.30;;;;;;4861669;28;89683;-37
2024/01/05 03:40:58;;;;;;;122.78;54.55;;;16.80;67.30;;;;;;4860198;28;90705;-37
2024/01/05 03:43:24;;;;;;;123.65;54.85;;;16.80;67.30;;;;;;4861800;28;90054;-37
2024/01/05 03:45:50;;;;;;;123.22;54.83;;;16.80;67.10;;;;;;4864715;28;90498;-37
2024/01/05 03:48:16;;;;;;;123.60;55.03;;;16.80;67.30;;;;;;4862533;28;89663;-37
2024/01/05 03:50:42;;;;;;;123.95;54.88;;;16.80;67.30;;;;;;4860727;28;90772;-37
2024/01/05 03:53:08;;;;;;;123.03;54.45;;;16.70;67.20;;;;;;4857930;28;90335;-37
2024/01/05 03:55:34;;;;;;;123.15;54.78;;;16.80;67.30;;;;;;4862017;28;90136;-36
2024/01/05 03:58:00;;;;;;;122.45;54.53;;;16.70;67.20;;;;;;4861812;28;89618;-37
2024/01/05 04:00:25;;;;;;;123.22;54.80;;;16.70;67.20;;;;;;4860000;28;90024;-37
2024/01/05 04:02:51;;;;;;;122.93;54.55;;;16.70;67.40;;;;;;4858253;28;90856;-37
2024/01/05 04:05:17;;;;;;;123.45;55.05;;;16.70;67.30;;;;;;4857468;28;91522;-37
2024/01/05 04:07:42;;;;;;;123.55;54.78;;;16.70;67.30;;;;;;4861681;28;89571;-36
2024/01/05 04:10:08;;;;;;;123.30;54.50;;;16.70;67.40;;;;;;4863395;28;89984;-36
2024/01/05 04:12:34;;;;;;;123.47;54.40;;;16.60;67.40;;;;;;4857651;28;91153;-36
2024/01/05 04:15:00;;;;;;;122.95;54.63;;;16.60;67.40;;;;;;4858246;28;89646;-36
2024/01/05 04:17:25;;;;;;;124.43;54.70;;;16.60;67.50;;;;;;4860636;28;89567;-36
2024/01/05 04:19:51;;;;;;;122.85;54.67;;;16.60;67.80;;;;;;4858060;28;89668;-36
2024/01/05 04:22:17;;;;;;;123.30;54.63;;;16.60;67.50;;;;;;4860118;28;90206;-36
2024/01/05 04:24:43;;;;;;;123.40;54.75;;;16.60;67.40;;;;;;4861349;28;89398;-36
2024/01/05 04:27:08;;;;;;;124.40;55.10;;;16.60;67.50;;;;;;4861821;28;91195;-36
2024/01/05 04:29:34;;;;;;;121.95;54.50;;;16.60;67.60;;;;;;4857370;28;91255;-36
2024/01/05 04:32:00;;;;;;;122.45;54.55;;;16.50;67.50;;;;;;4861324;28;89854;-36
2024/01/05 04:34:25;;;;;;;122.75;54.75;;;16.50;67.50;;;;;;4861074;28;89544;-36
2024/01/05 04:36:51;;;;;;;122.53;54.95;;;16.50;67.70;;;;;;4858687;28;89566;-36
2024/01/05 04:39:16;;;;;;;122.40;54.33;;;16.50;67.60;;;;;;4860598;28;90877;-36
2024/01/05 04:41:43;;;;;;;123.05;54.65;;;16.50;67.60;;;;;;4858670;28;91995;-36
2024/01/05 04:44:09;;;;;;;121.50;54.38;;;16.50;67.60;;;;;;4858603;28;89703;-36
2024/01/05 04:46:34;;;;;;;122.38;54.63;;;16.50;67.70;;;;;;4861757;28;88710;-36
2024/01/05 04:49:00;;;;;;;121.80;54.50;;;16.50;67.60;;;;;;4875142;28;93509;-36
2024/01/05 04:51:26;;;;;;;122.07;54.25;;;16.40;67.60;;;;;;4858181;28;89958;-36
2024/01/05 04:53:51;;;;;;;122.05;54.30;;;16.40;67.60;;;;;;4858129;28;90654;-36
2024/01/05 04:56:17;;;;;;;122.53;54.65;;;16.50;67.70;;;;;;4862200;28;89427;-36
2024/01/05 04:58:43;;;;;;;122.50;54.78;;;16.40;67.50;;;;;;4858086;28;89962;-36
2024/01/05 05:01:09;;;;;;;121.53;54.42;;;16.40;67.50;;;;;;4862490;28;90003;-36
2024/01/05 05:03:35;;;;;;;123.38;55.10;;;16.40;67.60;;;;;;4860455;28;89905;-36
2024/01/05 05:06:01;;;;;;;122.30;54.67;;;16.40;67.50;;;;;;4858326;28;89894;-36
2024/01/05 05:08:27;;;;;;;121.70;54.65;;;16.30;67.60;;;;;;4856855;28;91053;-36
2024/01/05 05:10:53;;;;;;;121.95;54.63;;;16.40;67.60;;;;;;4861143;28;88885;-36
2024/01/05 05:13:18;;;;;;;121.22;54.50;;;16.40;67.60;;;;;;4862297;28;89441;-37
2024/01/05 05:15:44;;;;;;;122.15;54.47;;;16.30;67.40;;;;;;4863800;28;90061;-36
2024/01/05 05:18:10;;;;;;;121.63;54.47;;;16.30;67.40;;;;;;4853116;28;90731;-36
2024/01/05 05:20:35;;;;;;;123.65;54.47;;;16.30;67.50;;;;;;4858858;28;89836;-36
2024/01/05 05:23:01;;;;;;;123.88;54.92;;;16.30;67.50;;;;;;4857647;28;89189;-36
2024/01/05 05:25:27;;;;;;;121.82;54.40;;;16.30;67.50;;;;;;4860770;28;90455;-36
2024/01/05 05:27:52;;;;;;;123.65;54.55;;;16.20;67.40;;;;;;4861428;28;89819;-36
2024/01/05 05:30:18;;;;;;;121.68;54.40;;;16.30;67.50;;;;;;4857575;28;89414;-36
2024/01/05 05:32:44;;;;;;;121.70;54.33;;;16.20;67.50;;;;;;4863673;28;90591;-36
2024/01/05 05:35:09;;;;;;;122.30;54.58;;;16.20;67.50;;;;;;4859588;28;88731;-36
2024/01/05 05:37:35;;;;;;;120.93;54.25;;;16.20;67.60;;;;;;4863665;28;89897;-38
2024/01/05 05:40:01;;;;;;;122.50;54.53;;;16.20;67.50;;;;;;4864615;28;89604;-38
2024/01/05 05:42:27;;;;;;;122.22;54.42;;;16.20;67.50;;;;;;4862940;28;92946;-36
2024/01/05 05:44:53;;;;;;;121.60;54.42;;;16.20;67.60;;;;;;4861344;28;91854;-37
2024/01/05 05:47:18;;;;;;;121.15;54.58;;;16.20;67.50;;;;;;4864575;28;90305;-37
2024/01/05 05:49:44;;;;;;;121.72;54.50;;;16.20;67.40;;;;;;4864046;28;90186;-37
2024/01/05 05:52:09;;;;;;;122.28;54.65;;;16.10;67.30;;;;;;4863310;28;90069;-37
2024/01/05 05:54:35;;;;;;;124.65;54.40;;;16.10;67.30;;;;;;4861725;28;89611;-37
2024/01/05 05:57:01;;;;;;;121.70;54.47;;;16.10;67.30;;;;;;4861670;28;89832;-37
2024/01/05 05:59:27;;;;;;;123.80;54.47;;;16.10;67.40;;;;;;4865169;28;93178;-37
2024/01/05 06:01:52;;;;;;;121.75;54.42;;;16.10;67.50;;;;;;4865218;28;90166;-36
2024/01/05 06:04:18;;;;;;;123.03;54.30;;;16.00;67.30;;;;;;4862826;28;90940;-37
2024/01/05 06:06:44;;;;;;;122.60;54.72;;;16.00;67.20;;;;;;4860371;28;91682;-36
2024/01/05 06:09:11;;;;;;;122.53;54.47;;;16.00;67.40;;;;;;4862404;28;89957;-37
2024/01/05 06:11:37;;;;;;;122.30;54.22;;;16.00;67.30;;;;;;4865625;28;89834;-37
2024/01/05 06:14:04;;;;;;;126.20;54.25;;;16.00;67.40;;;;;;4862720;28;91312;-36
2024/01/05 06:16:29;;;;;;;123.18;54.30;;;15.90;67.90;;;;;;4860761;28;90033;-37
2024/01/05 06:18:55;;;;;;;121.93;54.10;;;15.90;67.10;;;;;;4865866;28;89585;-36
2024/01/05 06:21:21;;;;;;;121.28;54.08;;;15.90;67.10;;;;;;4861770;28;89615;-36
2024/01/05 06:23:46;;;;;;;120.15;53.95;;;15.90;67.00;;;;;;4866703;28;90610;-36
2024/01/05 06:26:12;;;;;;;120.65;54.08;;;15.90;67.10;;;;;;4861159;28;89971;-36
2024/01/05 06:28:38;;;;;;;122.55;54.30;;;15.90;67.00;;;;;;4858336;28;90249;-37
2024/01/05 06:31:05;;;;;;;121.57;54.10;;;15.90;67.10;;;;;;4863526;28;90380;-36
2024/01/05 06:33:31;;;;;;;120.60;54.08;;;15.90;67.00;;;;;;4866077;28;91402;-36
2024/01/05 06:35:56;;;;;;;121.57;54.20;;;15.90;67.90;;;;;;4862249;28;90353;-36
2024/01/05 06:38:22;;;;;;;120.88;53.92;;;15.90;67.10;;;;;;4865158;28;89867;-36
2024/01/05 06:40:48;;;;;;;120.82;53.92;;;15.80;67.20;;;;;;4864797;28;90627;-36
2024/01/05 06:43:13;;;;;;;120.10;53.72;;;15.80;67.10;;;;;;4866087;28;90006;-36
2024/01/05 06:45:39;;;;;;;120.80;54.10;;;15.80;67.20;;;;;;4863284;28;90300;-36
2024/01/05 06:48:05;;;;;;;120.50;54.00;;;15.80;67.20;;;;;;4863373;28;90094;-36
2024/01/05 06:50:31;;;;;;;119.78;53.95;;;15.80;67.20;;;;;;4860117;28;89741;-36
2024/01/05 06:52:56;;;;;;;120.22;54.05;;;15.80;67.30;;;;;;4865385;28;89962;-36
2024/01/05 06:55:22;;;;;;;120.32;54.00;;;15.70;67.20;;;;;;4864309;28;90938;-36
2024/01/05 06:57:48;;;;;;;120.18;53.92;;;15.70;67.20;;;;;;4863259;28;89848;-36
2024/01/05 07:00:14;;;;;;;122.57;54.10;;;15.70;67.20;;;;;;4864884;28;89932;-36
2024/01/05 07:02:43;;;;;;;122.90;54.20;;;15.70;67.50;;;;;;4864837;28;89673;-36
2024/01/05 07:05:09;;;;;;;122.28;54.13;;;15.70;67.60;;;;;;4855768;28;90838;-36
2024/01/05 07:07:34;;;;;;;121.30;54.28;;;15.80;67.50;;;;;;4902870;23;90578;-81
2024/01/05 07:10:00;;;;;;;123.38;54.47;;;15.70;67.30;;;;;;4927042;28;89170;-80
2024/01/05 07:12:29;;;;;;;122.40;54.55;;;15.70;67.40;;;;;;4923814;28;89475;-82
2024/01/05 07:14:54;;;;;;;121.03;54.25;;;15.70;67.70;;;;;;4921780;28;91794;-83
2024/01/05 07:17:20;;;;;;;121.60;54.40;;;15.70;68.00;;;;;;4923242;28;92532;-82
2024/01/05 07:19:45;;;;;;;120.75;54.25;;;15.70;68.20;;;;;;4922708;28;91650;-82
2024/01/05 07:22:11;;;;;;;120.85;54.63;;;15.70;68.40;;;;;;4926201;28;89329;-82
2024/01/05 07:24:38;;;;;;;123.70;54.30;;;15.70;68.30;;;;;;4932325;28;92757;-81
2024/01/05 07:27:09;;;;;;;120.85;54.25;;;15.70;69.40;;;;;;4915469;28;92362;-83
2024/01/05 07:29:35;;;;;;;125.47;54.83;;;15.80;68.70;;;;;;4919694;28;89604;-85
2024/01/05 07:32:01;;;;;;;123.35;54.58;;;15.90;68.10;;;;;;4923356;28;89550;-83
2024/01/05 07:34:26;;;;;;;125.35;55.03;;;16.00;68.10;;;;;;4924007;28;92786;-83
2024/01/05 07:36:52;;;;;;;122.57;54.13;;;16.10;68.10;;;;;;4924236;28;92510;-83
2024/01/05 07:39:18;;;;;;;126.30;54.40;;;16.10;68.10;;;;;;4916600;28;89033;-83
2024/01/05 07:41:44;;;;;;;127.88;54.22;;;16.10;67.90;;;;;;4924201;28;88975;-83
2024/01/05 07:44:09;;;;;;;123.93;54.63;;;16.10;67.90;;;;;;4923640;28;90479;-82
2024/01/05 07:46:42;;;;;;;124.70;54.35;;;16.20;67.90;;;;;;4923568;28;89937;-83
2024/01/05 07:49:08;;;;;;;147.18;57.47;;;16.20;68.00;;;;;;4926305;28;90085;-84
2024/01/05 07:51:33;;;;;;;132.75;57.13;;;16.20;68.50;;;;;;4917760;28;89472;-87
2024/01/05 07:53:59;;;;;;;137.23;57.75;;;16.20;68.60;;;;;;4918229;28;90796;-87
2024/01/05 07:56:25;;;;;;;144.00;59.00;;;16.20;68.50;;;;;;4920912;28;91971;-86
2024/01/05 07:58:50;;;;;;;142.45;58.50;;;16.20;69.70;;;;;;4918509;28;89356;-84
2024/01/05 08:01:17;;;;;;;145.07;58.63;;;16.20;69.70;;;;;;4921083;28;88655;-85
2024/01/05 08:03:44;;;;;;;148.52;59.08;;;16.20;70.10;;;;;;4920892;28;91630;-88
2024/01/05 08:06:16;;;;;;;146.27;58.60;;;16.20;70.10;;;;;;4917576;28;92065;-88
2024/01/05 08:08:46;;;;;;;142.57;58.33;;;16.20;70.20;;;;;;4920363;28;90462;-86
2024/01/05 08:11:13;;;;;;;140.50;59.03;;;16.30;70.30;;;;;;4926519;28;92012;-86
2024/01/05 08:13:40;;;;;;;143.20;58.92;;;16.20;71.10;;;;;;4944681;28;91256;-88
2024/01/05 08:16:06;;;;;;;144.25;58.42;;;16.30;71.10;;;;;;4955881;28;90618;-89
2024/01/05 08:18:32;;;;;;;137.48;57.53;;;16.30;70.90;;;;;;4958833;28;88710;-87
2024/01/05 08:20:58;;;;;;;145.25;58.35;;;16.20;70.50;;;;;;4970472;28;88597;-88
2024/01/05 08:23:24;;;;;;;135.32;57.50;;;16.20;70.60;;;;;;4931958;28;90449;-88
2024/01/05 08:25:49;;;;;;;142.55;57.47;;;16.20;70.60;;;;;;4929477;28;92530;-89
2024/01/05 08:28:15;;;;;;;132.50;57.83;;;16.20;70.50;;;;;;4926520;28;88805;-89
2024/01/05 08:30:41;;;;;;;134.35;57.35;;;16.20;70.30;;;;;;4928006;28;89246;-90
2024/01/05 08:33:07;;;;;;;132.15;57.03;;;16.20;70.30;;;;;;4925492;28;93324;-90
2024/01/05 08:35:35;;;;;;;135.88;57.55;;;16.20;70.20;;;;;;4928250;28;92782;-90
2024/01/05 08:38:02;;;;;;;132.48;57.40;;;16.20;70.30;;;;;;4934012;28;89143;-90
2024/01/05 08:40:29;;;;;;;134.55;56.95;;;16.10;70.20;;;;;;4924801;28;89486;-90
2024/01/05 08:42:55;;;;;;;136.15;56.70;;;16.20;70.20;;;;;;4933066;28;89365;-90
2024/01/05 08:45:21;;;;;;;141.10;57.90;;;16.20;70.20;;;;;;4933148;28;91934;-90
2024/01/05 08:47:47;;;;;;;143.02;57.40;;;16.10;70.10;;;;;;4936986;28;88674;-90
2024/01/05 08:50:13;;;;;;;133.75;56.30;;;16.20;70.00;;;;;;4931935;28;89698;-91
2024/01/05 08:52:38;;;;;;;133.93;57.03;;;16.10;69.90;;;;;;4934240;28;91122;-91
2024/01/05 08:55:05;;;;;;;130.98;56.85;;;16.10;69.80;;;;;;4928414;28;92638;-91
2024/01/05 08:57:30;;;;;;;129.82;56.47;;;16.10;69.60;;;;;;4933109;28;90728;-90
2024/01/05 08:59:56;;;;;;;132.25;56.88;;;16.10;69.50;;;;;;4927448;28;89222;-90
2024/01/05 09:02:22;;;;;;;132.82;57.00;;;16.10;69.50;;;;;;4928878;28;92638;-90
2024/01/05 09:04:48;;;;;;;128.90;56.40;;;16.10;69.40;;;;;;4925814;28;92851;-90
2024/01/05 09:07:14;;;;;;;133.40;56.90;;;16.10;69.40;;;;;;4929022;28;88810;-90
2024/01/05 09:09:40;;;;;;;130.65;56.17;;;16.10;69.50;;;;;;4929091;28;89231;-89
2024/01/05 09:12:07;;;;;;;133.38;56.60;;;16.10;69.50;;;;;;4930371;28;90689;-84
2024/01/05 09:14:32;;;;;;;133.23;56.55;;;16.10;69.50;;;;;;4945124;28;93121;-83
2024/01/05 09:16:58;;;;;;;130.98;56.70;;;16.10;69.50;;;;;;4924839;28;89056;-85
2024/01/05 09:19:24;;;;;;;132.30;56.70;;;16.10;69.00;;;;;;4926856;28;88972;-86
2024/01/05 09:21:50;;;;;;;135.00;56.13;;;16.10;69.20;;;;;;4923824;28;94224;-85
2024/01/05 09:24:15;;;;;;;130.75;56.80;;;16.10;69.30;;;;;;4925605;28;92984;-85
2024/01/05 09:26:42;;;;;;;128.82;56.28;;;16.10;69.10;;;;;;4919082;28;89829;-82
2024/01/05 09:29:08;;;;;;;130.00;57.22;;;16.10;69.20;;;;;;4921955;28;89369;-85
2024/01/05 09:31:33;;;;;;;137.45;57.20;;;16.10;69.30;;;;;;4925364;28;89753;-86
2024/01/05 09:33:59;;;;;;;131.70;56.60;;;16.10;69.50;;;;;;4923932;28;91447;-85
2024/01/05 09:36:26;;;;;;;129.57;56.35;;;16.10;69.40;;;;;;4931607;28;89286;-86
2024/01/05 09:38:52;;;;;;;132.27;56.60;;;16.10;69.50;;;;;;4929905;28;88250;-87
2024/01/05 09:41:17;;;;;;;130.40;56.25;;;16.10;69.80;;;;;;4922057;28;90400;-87
2024/01/05 09:43:51;;;;;;;136.38;56.25;;;16.10;69.80;;;;;;4929738;28;92503;-87
2024/01/05 09:46:18;;;;;;;130.13;56.17;;;16.10;69.60;;;;;;4931696;28;89926;-86
2024/01/05 09:48:44;;;;;;;131.77;56.40;;;16.10;69.50;;;;;;4933466;28;89809;-87
2024/01/05 09:51:10;;;;;;;127.03;56.05;;;16.10;69.60;;;;;;4925587;28;91654;-87
2024/01/05 09:53:36;;;;;;;129.45;56.58;;;16.00;69.70;;;;;;4919891;28;91918;-87
2024/01/05 09:56:03;;;;;;;127.10;55.97;;;16.10;69.90;;;;;;4929644;28;89234;-87
2024/01/05 09:58:29;;;;;;;129.15;56.28;;;16.10;69.90;;;;;;4929891;28;89297;-88
2024/01/05 10:01:00;;;;;;;126.75;55.80;;;16.10;69.60;;;;;;4933902;28;89465;-86
2024/01/05 10:03:27;;;;;;;127.05;56.00;;;16.10;69.60;;;;;;4928783;28;92348;-87
2024/01/05 10:05:53;;;;;;;127.95;55.47;;;16.00;69.70;;;;;;4924824;28;89183;-87
2024/01/05 10:08:22;;;;;;;127.63;55.67;;;16.00;69.80;;;;;;4919997;28;89181;-88
2024/01/05 10:10:56;;;;;;;127.00;55.40;;;16.00;69.70;;;;;;4926942;28;90415;-86
2024/01/05 10:13:22;;;;;;;127.15;55.38;;;16.10;69.80;;;;;;4923855;28;91065;-90
2024/01/05 10:16:05;;;;;;;128.30;55.75;;;16.00;70.10;;;;;;4923322;28;89172;-91
2024/01/05 10:18:31;;;;;;;126.47;55.55;;;16.00;70.10;;;;;;4933066;28;89320;-88
2024/01/05 10:21:10;;;;;;;125.88;55.90;;;16.00;69.90;;;;;;4923402;28;92123;-89
2024/01/05 10:23:43;;;;;;;134.73;55.53;;;16.00;69.90;;;;;;4925199;28;92007;-85
2024/01/05 10:26:21;;;;;;;129.02;56.05;;;16.00;64.50;;;;;;4921418;28;89104;-85
2024/01/05 10:28:48;;;;;;;132.75;55.65;;;15.90;67.90;;;;;;4930452;28;88288;-85
2024/01/05 10:31:16;;;;;;;133.18;55.40;;;16.00;67.90;;;;;;4925063;28;94018;-84
2024/01/05 10:33:48;;;;;;;134.15;55.35;;;16.00;68.00;;;;;;4923817;28;93302;-83
2024/01/05 10:36:17;;;;;;;129.90;55.70;;;16.00;67.80;;;;;;4923365;28;90145;-84
2024/01/05 10:38:44;;;;;;;127.75;55.47;;;16.00;67.90;;;;;;4929816;28;88965;-84
2024/01/05 10:41:10;;;;;;;128.32;55.65;;;15.90;67.90;;;;;;4927574;28;92644;-83
2024/01/05 10:43:37;;;;;;;125.75;55.80;;;16.00;68.00;;;;;;4930524;28;92918;-91
2024/01/05 10:46:04;;;;;;;128.20;56.08;;;16.00;67.80;;;;;;4950830;28;88923;-90
2024/01/05 10:48:31;;;;;;;128.40;55.85;;;16.00;68.80;;;;;;4950618;28;88840;-87
2024/01/05 10:50:58;;;;;;;130.73;56.22;;;16.00;68.60;;;;;;4954971;28;91147;-87
2024/01/05 10:53:26;;;;;;;131.02;55.78;;;16.00;68.30;;;;;;4938218;28;89525;-86
2024/01/05 10:55:52;;;;;;;132.38;55.63;;;16.10;68.20;;;;;;4935843;28;89043;-87
2024/01/05 10:58:19;;;;;;;127.35;55.60;;;16.10;68.10;;;;;;4932803;28;89903;-85
2024/01/05 11:00:44;;;;;;;130.35;55.88;;;16.10;67.90;;;;;;4924634;28;92062;-88
2024/01/05 11:03:15;;;;;;;127.20;56.20;;;16.10;68.20;;;;;;4924961;28;93076;-88
2024/01/05 11:05:42;;;;;;;127.47;55.60;;;16.10;68.10;;;;;;4932201;28;88761;-88
2024/01/05 11:08:22;;;;;;;128.23;55.50;;;16.10;68.00;;;;;;4927475;28;89436;-90
2024/01/05 11:10:51;;;;;;;130.23;55.67;;;16.10;67.70;;;;;;4925937;28;92764;-89
2024/01/05 11:13:44;;;;;;;130.75;55.28;;;16.20;67.80;;;;;;4928060;28;90852;-89
2024/01/05 11:16:45;;;;;;;127.93;55.47;;;16.10;67.70;;;;;;4923376;28;89497;-87
2024/01/05 11:19:42;;;;;;;127.18;55.42;;;16.10;67.70;;;;;;4895486;28;88651;-89
2024/01/05 11:22:13;;;;;;;125.22;55.53;;;16.10;68.40;;;;;;4924940;28;92684;-88
2024/01/05 11:24:40;;;;;;;127.45;55.33;;;16.10;67.70;;;;;;4918838;28;92681;-87
2024/01/05 11:27:28;;;;;;;123.32;55.35;;;16.10;67.80;;;;;;4926924;28;92274;-90
2024/01/05 11:29:54;;;;;;;127.63;55.55;;;16.10;67.90;;;;;;4916870;28;89428;-90
2024/01/05 11:32:39;;;;;;;126.13;55.17;;;16.10;67.80;;;;;;4919792;28;91990;-83
2024/01/05 11:35:16;;;;;;;127.57;56.20;;;16.10;67.90;;;;;;4919533;28;89201;-83
2024/01/05 11:37:48;;;;;;;125.35;55.25;;;16.10;68.20;;;;;;4941083;28;89376;-82
2024/01/05 11:40:33;;;;;;;125.13;55.17;;;16.10;68.00;;;;;;4922498;28;90020;-82
2024/01/05 11:43:45;;;;;;;125.93;55.70;;;16.10;68.70;;;;;;4926104;28;93274;-83
2024/01/05 11:46:11;;;;;;;;;;;16.10;71.50;;;;;;4927150;28;92610;-85
2024/01/05 11:48:37;;;;;;;122.65;54.55;;;16.10;74.30;;;;;;4916798;28;89261;-87
2024/01/05 11:51:02;;;;;;;126.22;54.88;;;16.10;75.00;;;;;;4923441;28;89195;-85
2024/01/05 11:53:29;;;;;;;124.47;55.03;;;16.10;75.80;;;;;;4923449;28;93527;-89
2024/01/05 11:55:56;;;;;;;125.82;55.05;;;16.10;77.30;;;;;;4922777;28;93674;-88
2024/01/05 11:58:35;;;;;;;124.22;55.20;;;16.10;78.00;;;;;;4924713;28;88648;-89
2024/01/05 12:01:04;;;;;;;123.20;54.90;;;16.00;78.40;;;;;;4922743;28;89042;-88
2024/01/05 12:03:30;;;;;;;125.72;54.72;;;16.00;78.40;;;;;;4931470;28;89098;-88
2024/01/05 12:06:07;;;;;;;122.97;55.03;;;16.00;78.60;;;;;;4924002;28;89225;-90
2024/01/05 12:08:33;;;;;;;126.47;54.83;;;16.00;77.70;;;;;;4924983;28;88659;-86
2024/01/05 12:11:05;;;;;;;122.55;54.92;;;16.00;77.70;;;;;;4927093;28;89856;-88
2024/01/05 12:13:33;;;;;;;125.80;54.97;;;16.00;77.30;;;;;;4929123;28;92022;-89
2024/01/05 12:16:00;;;;;;;123.18;55.10;;;16.00;77.20;;;;;;4926427;28;91391;-89
2024/01/05 12:18:26;;;;;;;123.78;54.95;;;16.00;77.00;;;;;;4925530;28;89613;-89